Bartley, Nebraska
Current Conditions -  °F | °C
As of 1:53 AM on Monday 24 Nov 2014 (Local Time) from KMCK Reporting Station
Broken Clouds Broken Clouds  
Wind Chill: 21°   Ceiling: 10000
Heat Index: 32°   Visibility: 10mi
Dew Point: 18°   Wind: 17mph
Humidity: 56%   Direction: 280°W
Pressure: 29.73"   Gusts: NA
Location:  40.25°N, 100.31°W
Report Text: KMCK 240753Z AUTO 28015KT 10SM BKN100 00/M08 A2973 RMK AO2 SLP076 T00001078
Loading
Personal Weather Stations






























Interactive Weather Map New forecast layout! Learn more

10-Day Weather Forecast

Advertisements
Track Severe Weather on mobile